sensor_id;sensor_type;location;lat;lon;timestamp;P1;durP1;ratioP1;P2;durP2;ratioP2
43552;SDS011;29153;42.696;23.218;2023-06-14T00:02:13;7.75;;;4.85;;
43552;SDS011;29153;42.696;23.218;2023-06-14T00:07:09;6.40;;;3.65;;
43552;SDS011;29153;42.696;23.218;2023-06-14T00:09:38;11.08;;;4.30;;
43552;SDS011;29153;42.696;23.218;2023-06-14T00:12:06;9.18;;;3.45;;
43552;SDS011;29153;42.696;23.218;2023-06-14T00:14:35;13.85;;;4.00;;
43552;SDS011;29153;42.696;23.218;2023-06-14T00:17:03;7.67;;;3.77;;
43552;SDS011;29153;42.696;23.218;2023-06-14T00:19:32;7.95;;;3.55;;
43552;SDS011;29153;42.696;23.218;2023-06-14T00:22:02;9.78;;;4.20;;
43552;SDS011;29153;42.696;23.218;2023-06-14T00:24:30;9.03;;;3.72;;
43552;SDS011;29153;42.696;23.218;2023-06-14T00:26:58;10.58;;;4.05;;
43552;SDS011;29153;42.696;23.218;2023-06-14T00:29:26;9.33;;;4.22;;
43552;SDS011;29153;42.696;23.218;2023-06-14T00:31:53;8.15;;;3.98;;
43552;SDS011;29153;42.696;23.218;2023-06-14T00:34:21;8.28;;;4.28;;
43552;SDS011;29153;42.696;23.218;2023-06-14T00:36:49;6.17;;;3.37;;
43552;SDS011;29153;42.696;23.218;2023-06-14T00:39:16;7.78;;;4.37;;
43552;SDS011;29153;42.696;23.218;2023-06-14T00:41:44;6.62;;;4.22;;
43552;SDS011;29153;42.696;23.218;2023-06-14T00:44:12;8.35;;;3.95;;
43552;SDS011;29153;42.696;23.218;2023-06-14T00:46:42;8.30;;;4.05;;
43552;SDS011;29153;42.696;23.218;2023-06-14T00:49:10;8.30;;;4.03;;
43552;SDS011;29153;42.696;23.218;2023-06-14T00:51:39;7.55;;;4.03;;
43552;SDS011;29153;42.696;23.218;2023-06-14T00:54:07;6.83;;;4.08;;
43552;SDS011;29153;42.696;23.218;2023-06-14T00:59:04;10.15;;;3.95;;
43552;SDS011;29153;42.696;23.218;2023-06-14T01:01:32;8.45;;;4.28;;
43552;SDS011;29153;42.696;23.218;2023-06-14T01:04:00;8.20;;;3.75;;
43552;SDS011;29153;42.696;23.218;2023-06-14T01:06:35;6.95;;;4.20;;
43552;SDS011;29153;42.696;23.218;2023-06-14T01:09:06;8.00;;;4.37;;
43552;SDS011;29153;42.696;23.218;2023-06-14T01:11:38;9.08;;;3.45;;
43552;SDS011;29153;42.696;23.218;2023-06-14T01:14:09;7.17;;;3.77;;
43552;SDS011;29153;42.696;23.218;2023-06-14T01:16:39;7.50;;;3.85;;
43552;SDS011;29153;42.696;23.218;2023-06-14T01:19:09;8.43;;;3.77;;
43552;SDS011;29153;42.696;23.218;2023-06-14T01:21:39;10.82;;;3.85;;
43552;SDS011;29153;42.696;23.218;2023-06-14T01:24:08;6.37;;;3.80;;
43552;SDS011;29153;42.696;23.218;2023-06-14T01:26:36;10.10;;;4.20;;
43552;SDS011;29153;42.696;23.218;2023-06-14T01:29:06;6.75;;;4.05;;
43552;SDS011;29153;42.696;23.218;2023-06-14T01:31:36;7.10;;;3.58;;
43552;SDS011;29153;42.696;23.218;2023-06-14T01:34:06;9.15;;;4.20;;
43552;SDS011;29153;42.696;23.218;2023-06-14T01:39:03;6.87;;;3.83;;
43552;SDS011;29153;42.696;23.218;2023-06-14T01:41:32;7.00;;;3.80;;
43552;SDS011;29153;42.696;23.218;2023-06-14T01:44:01;7.28;;;4.00;;
43552;SDS011;29153;42.696;23.218;2023-06-14T01:46:29;8.83;;;3.42;;
43552;SDS011;29153;42.696;23.218;2023-06-14T01:48:57;8.23;;;4.60;;
43552;SDS011;29153;42.696;23.218;2023-06-14T01:53:52;8.58;;;4.12;;
43552;SDS011;29153;42.696;23.218;2023-06-14T01:56:20;10.70;;;4.28;;
43552;SDS011;29153;42.696;23.218;2023-06-14T01:58:48;6.97;;;3.77;;
43552;SDS011;29153;42.696;23.218;2023-06-14T02:01:19;8.28;;;4.22;;
43552;SDS011;29153;42.696;23.218;2023-06-14T02:03:47;7.37;;;4.17;;
43552;SDS011;29153;42.696;23.218;2023-06-14T02:06:16;9.45;;;4.03;;
43552;SDS011;29153;42.696;23.218;2023-06-14T02:08:45;9.78;;;4.03;;
43552;SDS011;29153;42.696;23.218;2023-06-14T02:11:12;8.08;;;4.20;;
43552;SDS011;29153;42.696;23.218;2023-06-14T02:13:41;6.78;;;4.08;;
43552;SDS011;29153;42.696;23.218;2023-06-14T02:16:09;12.20;;;4.62;;
43552;SDS011;29153;42.696;23.218;2023-06-14T02:18:36;7.12;;;4.25;;
43552;SDS011;29153;42.696;23.218;2023-06-14T02:21:04;8.65;;;4.50;;
43552;SDS011;29153;42.696;23.218;2023-06-14T02:23:35;6.95;;;4.12;;
43552;SDS011;29153;42.696;23.218;2023-06-14T02:26:02;6.17;;;3.85;;
43552;SDS011;29153;42.696;23.218;2023-06-14T02:28:30;6.83;;;3.83;;
43552;SDS011;29153;42.696;23.218;2023-06-14T02:31:01;7.87;;;4.28;;
43552;SDS011;29153;42.696;23.218;2023-06-14T02:33:30;7.85;;;4.37;;
43552;SDS011;29153;42.696;23.218;2023-06-14T02:35:57;8.10;;;4.75;;
43552;SDS011;29153;42.696;23.218;2023-06-14T02:38:25;8.00;;;3.95;;
43552;SDS011;29153;42.696;23.218;2023-06-14T02:40:52;6.78;;;4.10;;
43552;SDS011;29153;42.696;23.218;2023-06-14T02:43:20;11.50;;;4.03;;
43552;SDS011;29153;42.696;23.218;2023-06-14T02:45:48;6.90;;;4.10;;
43552;SDS011;29153;42.696;23.218;2023-06-14T02:48:16;6.42;;;3.75;;
43552;SDS011;29153;42.696;23.218;2023-06-14T02:50:43;7.15;;;3.85;;
43552;SDS011;29153;42.696;23.218;2023-06-14T02:53:11;6.78;;;4.00;;
43552;SDS011;29153;42.696;23.218;2023-06-14T02:55:38;8.33;;;3.50;;
43552;SDS011;29153;42.696;23.218;2023-06-14T02:58:06;5.80;;;3.15;;
43552;SDS011;29153;42.696;23.218;2023-06-14T03:00:33;8.35;;;3.75;;
43552;SDS011;29153;42.696;23.218;2023-06-14T03:03:01;6.83;;;4.20;;
43552;SDS011;29153;42.696;23.218;2023-06-14T03:05:30;7.15;;;4.12;;
43552;SDS011;29153;42.696;23.218;2023-06-14T03:07:58;8.18;;;4.28;;
43552;SDS011;29153;42.696;23.218;2023-06-14T03:10:26;8.23;;;4.17;;
43552;SDS011;29153;42.696;23.218;2023-06-14T03:12:54;7.03;;;4.17;;
43552;SDS011;29153;42.696;23.218;2023-06-14T03:15:23;6.97;;;3.42;;
43552;SDS011;29153;42.696;23.218;2023-06-14T03:17:51;8.45;;;4.50;;
43552;SDS011;29153;42.696;23.218;2023-06-14T03:22:45;9.83;;;4.45;;
43552;SDS011;29153;42.696;23.218;2023-06-14T03:25:13;8.53;;;4.40;;
43552;SDS011;29153;42.696;23.218;2023-06-14T03:27:41;9.35;;;4.40;;
43552;SDS011;29153;42.696;23.218;2023-06-14T03:30:08;9.33;;;4.45;;
43552;SDS011;29153;42.696;23.218;2023-06-14T03:32:36;9.90;;;3.75;;
43552;SDS011;29153;42.696;23.218;2023-06-14T03:35:04;7.47;;;4.08;;
43552;SDS011;29153;42.696;23.218;2023-06-14T03:39:59;9.85;;;4.05;;
43552;SDS011;29153;42.696;23.218;2023-06-14T03:42:26;6.80;;;4.03;;
43552;SDS011;29153;42.696;23.218;2023-06-14T03:44:55;7.75;;;3.75;;
43552;SDS011;29153;42.696;23.218;2023-06-14T03:47:23;5.92;;;3.50;;
43552;SDS011;29153;42.696;23.218;2023-06-14T03:49:50;6.80;;;3.15;;
43552;SDS011;29153;42.696;23.218;2023-06-14T03:52:18;8.90;;;3.60;;
43552;SDS011;29153;42.696;23.218;2023-06-14T03:54:47;7.53;;;3.65;;
43552;SDS011;29153;42.696;23.218;2023-06-14T03:57:15;8.73;;;4.12;;
43552;SDS011;29153;42.696;23.218;2023-06-14T03:59:42;6.10;;;3.60;;
43552;SDS011;29153;42.696;23.218;2023-06-14T04:02:11;6.58;;;3.70;;
43552;SDS011;29153;42.696;23.218;2023-06-14T04:04:40;7.47;;;3.33;;
43552;SDS011;29153;42.696;23.218;2023-06-14T04:07:11;7.40;;;4.08;;
43552;SDS011;29153;42.696;23.218;2023-06-14T04:09:39;6.53;;;4.00;;
43552;SDS011;29153;42.696;23.218;2023-06-14T04:12:09;6.67;;;3.33;;
43552;SDS011;29153;42.696;23.218;2023-06-14T04:14:37;5.78;;;3.40;;
43552;SDS011;29153;42.696;23.218;2023-06-14T04:17:06;6.53;;;3.10;;
43552;SDS011;29153;42.696;23.218;2023-06-14T04:19:34;7.37;;;3.33;;
43552;SDS011;29153;42.696;23.218;2023-06-14T04:22:02;9.88;;;3.05;;
43552;SDS011;29153;42.696;23.218;2023-06-14T04:24:30;5.67;;;3.15;;
43552;SDS011;29153;42.696;23.218;2023-06-14T04:27:00;5.65;;;2.70;;
43552;SDS011;29153;42.696;23.218;2023-06-14T04:29:28;6.97;;;3.00;;
43552;SDS011;29153;42.696;23.218;2023-06-14T04:31:57;5.85;;;3.05;;
43552;SDS011;29153;42.696;23.218;2023-06-14T04:34:26;6.70;;;3.35;;
43552;SDS011;29153;42.696;23.218;2023-06-14T04:36:58;5.95;;;3.02;;
43552;SDS011;29153;42.696;23.218;2023-06-14T04:39:26;5.30;;;3.08;;
43552;SDS011;29153;42.696;23.218;2023-06-14T04:41:54;6.05;;;3.05;;
43552;SDS011;29153;42.696;23.218;2023-06-14T04:44:25;5.25;;;2.90;;
43552;SDS011;29153;42.696;23.218;2023-06-14T04:46:54;5.03;;;2.92;;
43552;SDS011;29153;42.696;23.218;2023-06-14T04:49:24;6.75;;;3.05;;
43552;SDS011;29153;42.696;23.218;2023-06-14T04:51:53;6.03;;;3.37;;
43552;SDS011;29153;42.696;23.218;2023-06-14T04:54:22;7.25;;;3.35;;
43552;SDS011;29153;42.696;23.218;2023-06-14T04:56:55;6.45;;;3.37;;
43552;SDS011;29153;42.696;23.218;2023-06-14T04:59:26;6.00;;;3.20;;
43552;SDS011;29153;42.696;23.218;2023-06-14T05:01:56;5.85;;;3.20;;
43552;SDS011;29153;42.696;23.218;2023-06-14T05:04:23;8.35;;;3.65;;
43552;SDS011;29153;42.696;23.218;2023-06-14T05:06:52;5.78;;;3.50;;
43552;SDS011;29153;42.696;23.218;2023-06-14T05:09:23;6.70;;;4.05;;
43552;SDS011;29153;42.696;23.218;2023-06-14T05:11:50;8.50;;;4.28;;
43552;SDS011;29153;42.696;23.218;2023-06-14T05:14:18;7.72;;;3.95;;
43552;SDS011;29153;42.696;23.218;2023-06-14T05:16:47;9.55;;;4.37;;
43552;SDS011;29153;42.696;23.218;2023-06-14T05:19:15;7.40;;;3.77;;
43552;SDS011;29153;42.696;23.218;2023-06-14T05:24:12;8.30;;;4.08;;
43552;SDS011;29153;42.696;23.218;2023-06-14T05:29:08;11.33;;;4.60;;
43552;SDS011;29153;42.696;23.218;2023-06-14T05:31:35;7.12;;;4.08;;
43552;SDS011;29153;42.696;23.218;2023-06-14T05:34:03;7.42;;;4.40;;
43552;SDS011;29153;42.696;23.218;2023-06-14T05:36:31;7.55;;;4.08;;
43552;SDS011;29153;42.696;23.218;2023-06-14T05:39:03;8.48;;;4.03;;
43552;SDS011;29153;42.696;23.218;2023-06-14T05:41:37;8.50;;;4.08;;
43552;SDS011;29153;42.696;23.218;2023-06-14T05:46:52;8.43;;;3.98;;
43552;SDS011;29153;42.696;23.218;2023-06-14T05:49:20;6.72;;;4.30;;
43552;SDS011;29153;42.696;23.218;2023-06-14T05:51:47;6.83;;;3.77;;
43552;SDS011;29153;42.696;23.218;2023-06-14T05:54:15;7.28;;;4.05;;
43552;SDS011;29153;42.696;23.218;2023-06-14T05:56:42;8.45;;;4.50;;
43552;SDS011;29153;42.696;23.218;2023-06-14T05:59:10;6.95;;;4.20;;
43552;SDS011;29153;42.696;23.218;2023-06-14T06:01:38;7.12;;;4.03;;
43552;SDS011;29153;42.696;23.218;2023-06-14T06:04:07;6.97;;;4.20;;
43552;SDS011;29153;42.696;23.218;2023-06-14T06:06:35;8.58;;;4.25;;
43552;SDS011;29153;42.696;23.218;2023-06-14T06:09:02;7.35;;;4.17;;
43552;SDS011;29153;42.696;23.218;2023-06-14T06:11:30;6.55;;;4.08;;
43552;SDS011;29153;42.696;23.218;2023-06-14T06:13:59;9.13;;;4.72;;
43552;SDS011;29153;42.696;23.218;2023-06-14T06:16:28;7.58;;;3.83;;
43552;SDS011;29153;42.696;23.218;2023-06-14T06:18:55;6.12;;;3.77;;
43552;SDS011;29153;42.696;23.218;2023-06-14T06:21:24;7.90;;;4.67;;
43552;SDS011;29153;42.696;23.218;2023-06-14T06:23:52;8.53;;;4.42;;
43552;SDS011;29153;42.696;23.218;2023-06-14T06:26:21;7.97;;;4.45;;
43552;SDS011;29153;42.696;23.218;2023-06-14T06:28:49;8.85;;;4.85;;
43552;SDS011;29153;42.696;23.218;2023-06-14T06:31:18;7.28;;;4.55;;
43552;SDS011;29153;42.696;23.218;2023-06-14T06:33:47;8.25;;;4.53;;
43552;SDS011;29153;42.696;23.218;2023-06-14T06:36:15;8.05;;;4.72;;
43552;SDS011;29153;42.696;23.218;2023-06-14T06:38:43;6.87;;;4.53;;
43552;SDS011;29153;42.696;23.218;2023-06-14T06:43:37;10.95;;;5.45;;
43552;SDS011;29153;42.696;23.218;2023-06-14T06:46:05;10.45;;;4.85;;
43552;SDS011;29153;42.696;23.218;2023-06-14T06:48:34;9.53;;;5.17;;
43552;SDS011;29153;42.696;23.218;2023-06-14T06:51:02;9.43;;;5.17;;
43552;SDS011;29153;42.696;23.218;2023-06-14T06:53:31;9.25;;;5.17;;
43552;SDS011;29153;42.696;23.218;2023-06-14T06:55:58;10.00;;;5.95;;
43552;SDS011;29153;42.696;23.218;2023-06-14T06:58:26;10.03;;;5.42;;
43552;SDS011;29153;42.696;23.218;2023-06-14T07:00:55;12.35;;;5.50;;
43552;SDS011;29153;42.696;23.218;2023-06-14T07:03:23;10.63;;;5.47;;
43552;SDS011;29153;42.696;23.218;2023-06-14T07:05:50;9.78;;;5.92;;
43552;SDS011;29153;42.696;23.218;2023-06-14T07:08:18;9.35;;;5.72;;
43552;SDS011;29153;42.696;23.218;2023-06-14T07:10:45;9.65;;;5.58;;
43552;SDS011;29153;42.696;23.218;2023-06-14T07:13:13;10.95;;;5.70;;
43552;SDS011;29153;42.696;23.218;2023-06-14T07:15:41;10.50;;;5.50;;
43552;SDS011;29153;42.696;23.218;2023-06-14T07:18:09;10.48;;;5.53;;
43552;SDS011;29153;42.696;23.218;2023-06-14T07:20:37;9.50;;;5.80;;
43552;SDS011;29153;42.696;23.218;2023-06-14T07:23:05;9.28;;;5.60;;
43552;SDS011;29153;42.696;23.218;2023-06-14T07:25:33;12.68;;;5.87;;
43552;SDS011;29153;42.696;23.218;2023-06-14T07:28:01;8.88;;;5.58;;
43552;SDS011;29153;42.696;23.218;2023-06-14T07:30:29;10.38;;;6.53;;
43552;SDS011;29153;42.696;23.218;2023-06-14T07:32:57;10.88;;;5.78;;
43552;SDS011;29153;42.696;23.218;2023-06-14T07:35:25;10.08;;;6.20;;
43552;SDS011;29153;42.696;23.218;2023-06-14T07:37:53;11.00;;;6.97;;
43552;SDS011;29153;42.696;23.218;2023-06-14T07:40:20;12.13;;;7.75;;
43552;SDS011;29153;42.696;23.218;2023-06-14T07:42:48;11.22;;;6.10;;
43552;SDS011;29153;42.696;23.218;2023-06-14T07:45:17;12.13;;;7.08;;
43552;SDS011;29153;42.696;23.218;2023-06-14T07:47:45;14.38;;;8.23;;
43552;SDS011;29153;42.696;23.218;2023-06-14T07:50:12;14.30;;;8.50;;
43552;SDS011;29153;42.696;23.218;2023-06-14T07:52:40;16.02;;;8.68;;
43552;SDS011;29153;42.696;23.218;2023-06-14T07:55:08;17.87;;;9.33;;
43552;SDS011;29153;42.696;23.218;2023-06-14T07:57:36;13.95;;;8.58;;
43552;SDS011;29153;42.696;23.218;2023-06-14T08:00:04;14.95;;;8.60;;
43552;SDS011;29153;42.696;23.218;2023-06-14T08:02:33;13.28;;;7.55;;
43552;SDS011;29153;42.696;23.218;2023-06-14T08:05:00;10.93;;;7.55;;
43552;SDS011;29153;42.696;23.218;2023-06-14T08:07:28;11.95;;;7.85;;
43552;SDS011;29153;42.696;23.218;2023-06-14T08:09:57;11.80;;;7.92;;
43552;SDS011;29153;42.696;23.218;2023-06-14T08:12:24;13.60;;;8.23;;
43552;SDS011;29153;42.696;23.218;2023-06-14T08:14:52;12.33;;;8.00;;
43552;SDS011;29153;42.696;23.218;2023-06-14T08:17:20;13.30;;;8.15;;
43552;SDS011;29153;42.696;23.218;2023-06-14T08:19:47;12.90;;;7.67;;
43552;SDS011;29153;42.696;23.218;2023-06-14T08:22:17;14.58;;;7.80;;
43552;SDS011;29153;42.696;23.218;2023-06-14T08:34:50;12.47;;;7.10;;
43552;SDS011;29153;42.696;23.218;2023-06-14T08:37:18;14.58;;;8.23;;
43552;SDS011;29153;42.696;23.218;2023-06-14T08:39:49;13.75;;;7.92;;
43552;SDS011;29153;42.696;23.218;2023-06-14T08:42:17;11.95;;;7.55;;
43552;SDS011;29153;42.696;23.218;2023-06-14T08:44:47;14.05;;;8.40;;
43552;SDS011;29153;42.696;23.218;2023-06-14T08:47:15;10.93;;;7.40;;
43552;SDS011;29153;42.696;23.218;2023-06-14T08:49:45;13.28;;;8.00;;
43552;SDS011;29153;42.696;23.218;2023-06-14T08:52:15;12.35;;;8.20;;
43552;SDS011;29153;42.696;23.218;2023-06-14T08:54:45;14.38;;;8.23;;
43552;SDS011;29153;42.696;23.218;2023-06-14T08:57:14;13.30;;;7.90;;
43552;SDS011;29153;42.696;23.218;2023-06-14T08:59:45;12.63;;;8.25;;
43552;SDS011;29153;42.696;23.218;2023-06-14T09:02:18;12.95;;;8.33;;
43552;SDS011;29153;42.696;23.218;2023-06-14T09:04:47;13.78;;;7.85;;
43552;SDS011;29153;42.696;23.218;2023-06-14T09:07:18;12.15;;;7.90;;
43552;SDS011;29153;42.696;23.218;2023-06-14T09:09:46;15.40;;;7.83;;
43552;SDS011;29153;42.696;23.218;2023-06-14T09:12:14;15.30;;;7.92;;
43552;SDS011;29153;42.696;23.218;2023-06-14T09:14:42;14.03;;;6.95;;
43552;SDS011;29153;42.696;23.218;2023-06-14T09:17:12;10.35;;;7.03;;
43552;SDS011;29153;42.696;23.218;2023-06-14T09:19:40;13.58;;;7.92;;
43552;SDS011;29153;42.696;23.218;2023-06-14T09:22:07;11.12;;;7.12;;
43552;SDS011;29153;42.696;23.218;2023-06-14T09:24:36;12.28;;;7.53;;
43552;SDS011;29153;42.696;23.218;2023-06-14T09:27:04;13.10;;;7.80;;
43552;SDS011;29153;42.696;23.218;2023-06-14T09:31:59;12.25;;;7.55;;
43552;SDS011;29153;42.696;23.218;2023-06-14T09:34:26;12.63;;;7.80;;
43552;SDS011;29153;42.696;23.218;2023-06-14T09:36:54;11.73;;;7.92;;
43552;SDS011;29153;42.696;23.218;2023-06-14T09:39:22;11.55;;;7.03;;
43552;SDS011;29153;42.696;23.218;2023-06-14T09:41:50;10.95;;;7.15;;
43552;SDS011;29153;42.696;23.218;2023-06-14T09:44:18;12.55;;;7.05;;
43552;SDS011;29153;42.696;23.218;2023-06-14T09:46:47;12.40;;;7.42;;
43552;SDS011;29153;42.696;23.218;2023-06-14T09:49:16;11.50;;;7.58;;
43552;SDS011;29153;42.696;23.218;2023-06-14T09:51:44;13.08;;;7.37;;
43552;SDS011;29153;42.696;23.218;2023-06-14T09:54:17;14.15;;;7.83;;
43552;SDS011;29153;42.696;23.218;2023-06-14T09:56:47;12.95;;;8.20;;
43552;SDS011;29153;42.696;23.218;2023-06-14T09:59:19;12.80;;;8.05;;
43552;SDS011;29153;42.696;23.218;2023-06-14T10:01:47;11.25;;;8.03;;
43552;SDS011;29153;42.696;23.218;2023-06-14T10:04:16;11.93;;;7.95;;
43552;SDS011;29153;42.696;23.218;2023-06-14T10:06:46;13.22;;;8.33;;
43552;SDS011;29153;42.696;23.218;2023-06-14T10:09:15;17.85;;;8.53;;
43552;SDS011;29153;42.696;23.218;2023-06-14T10:11:46;12.13;;;7.90;;
43552;SDS011;29153;42.696;23.218;2023-06-14T10:14:15;14.60;;;8.60;;
43552;SDS011;29153;42.696;23.218;2023-06-14T10:16:52;12.40;;;8.65;;
43552;SDS011;29153;42.696;23.218;2023-06-14T10:19:48;12.33;;;8.65;;
43552;SDS011;29153;42.696;23.218;2023-06-14T10:22:21;13.43;;;8.10;;
43552;SDS011;29153;42.696;23.218;2023-06-14T10:24:50;14.38;;;8.78;;
43552;SDS011;29153;42.696;23.218;2023-06-14T10:27:18;15.30;;;8.08;;
43552;SDS011;29153;42.696;23.218;2023-06-14T10:32:25;11.50;;;7.72;;
43552;SDS011;29153;42.696;23.218;2023-06-14T10:34:55;13.22;;;8.68;;
43552;SDS011;29153;42.696;23.218;2023-06-14T10:37:27;11.97;;;8.25;;
43552;SDS011;29153;42.696;23.218;2023-06-14T10:39:55;12.30;;;8.18;;
43552;SDS011;29153;42.696;23.218;2023-06-14T10:42:23;13.00;;;8.13;;
43552;SDS011;29153;42.696;23.218;2023-06-14T10:44:55;12.15;;;8.25;;
43552;SDS011;29153;42.696;23.218;2023-06-14T10:47:28;11.30;;;7.33;;
43552;SDS011;29153;42.696;23.218;2023-06-14T10:50:09;13.10;;;8.30;;
43552;SDS011;29153;42.696;23.218;2023-06-14T10:52:34;11.60;;;7.95;;
43552;SDS011;29153;42.696;23.218;2023-06-14T10:55:08;12.50;;;7.92;;
43552;SDS011;29153;42.696;23.218;2023-06-14T10:57:43;11.57;;;7.67;;
43552;SDS011;29153;42.696;23.218;2023-06-14T11:00:13;19.85;;;8.03;;
43552;SDS011;29153;42.696;23.218;2023-06-14T11:02:49;12.10;;;7.37;;
43552;SDS011;29153;42.696;23.218;2023-06-14T11:05:20;12.37;;;8.05;;
43552;SDS011;29153;42.696;23.218;2023-06-14T11:08:08;11.12;;;7.08;;
43552;SDS011;29153;42.696;23.218;2023-06-14T11:10:49;12.30;;;8.35;;
43552;SDS011;29153;42.696;23.218;2023-06-14T11:13:17;15.55;;;8.93;;
43552;SDS011;29153;42.696;23.218;2023-06-14T11:15:47;13.65;;;7.85;;
43552;SDS011;29153;42.696;23.218;2023-06-14T11:18:16;17.90;;;8.90;;
43552;SDS011;29153;42.696;23.218;2023-06-14T11:20:45;11.85;;;7.62;;
43552;SDS011;29153;42.696;23.218;2023-06-14T11:23:13;14.47;;;8.63;;
43552;SDS011;29153;42.696;23.218;2023-06-14T11:25:41;13.62;;;8.98;;
43552;SDS011;29153;42.696;23.218;2023-06-14T11:28:08;12.58;;;8.30;;
43552;SDS011;29153;42.696;23.218;2023-06-14T11:30:36;14.10;;;7.70;;
43552;SDS011;29153;42.696;23.218;2023-06-14T11:33:04;13.30;;;8.98;;
43552;SDS011;29153;42.696;23.218;2023-06-14T11:35:33;12.80;;;8.13;;
43552;SDS011;29153;42.696;23.218;2023-06-14T11:38:01;11.43;;;8.03;;
43552;SDS011;29153;42.696;23.218;2023-06-14T11:40:29;12.30;;;8.20;;
43552;SDS011;29153;42.696;23.218;2023-06-14T11:43:00;14.40;;;7.90;;
43552;SDS011;29153;42.696;23.218;2023-06-14T11:45:29;12.45;;;8.50;;
43552;SDS011;29153;42.696;23.218;2023-06-14T11:47:58;13.95;;;8.13;;
43552;SDS011;29153;42.696;23.218;2023-06-14T11:50:26;13.88;;;8.40;;
43552;SDS011;29153;42.696;23.218;2023-06-14T11:52:58;12.78;;;8.48;;
43552;SDS011;29153;42.696;23.218;2023-06-14T11:55:28;13.53;;;8.58;;
43552;SDS011;29153;42.696;23.218;2023-06-14T11:57:56;12.18;;;8.05;;
43552;SDS011;29153;42.696;23.218;2023-06-14T12:02:56;11.35;;;7.25;;
43552;SDS011;29153;42.696;23.218;2023-06-14T12:05:24;12.18;;;7.42;;
43552;SDS011;29153;42.696;23.218;2023-06-14T12:07:59;14.73;;;8.13;;
43552;SDS011;29153;42.696;23.218;2023-06-14T12:10:28;14.15;;;7.60;;
43552;SDS011;29153;42.696;23.218;2023-06-14T12:12:58;14.03;;;8.05;;
43552;SDS011;29153;42.696;23.218;2023-06-14T12:15:29;11.08;;;6.95;;
43552;SDS011;29153;42.696;23.218;2023-06-14T12:17:58;12.88;;;7.53;;
43552;SDS011;29153;42.696;23.218;2023-06-14T12:20:28;12.63;;;6.78;;
43552;SDS011;29153;42.696;23.218;2023-06-14T12:23:02;11.25;;;6.87;;
43552;SDS011;29153;42.696;23.218;2023-06-14T12:25:30;10.38;;;6.67;;
43552;SDS011;29153;42.696;23.218;2023-06-14T12:28:04;10.95;;;6.60;;
43552;SDS011;29153;42.696;23.218;2023-06-14T12:30:35;11.35;;;6.42;;
43552;SDS011;29153;42.696;23.218;2023-06-14T12:33:03;11.75;;;6.72;;
43552;SDS011;29153;42.696;23.218;2023-06-14T12:35:33;11.75;;;6.42;;
43552;SDS011;29153;42.696;23.218;2023-06-14T12:38:00;9.78;;;6.72;;
43552;SDS011;29153;42.696;23.218;2023-06-14T12:40:29;9.25;;;6.33;;
43552;SDS011;29153;42.696;23.218;2023-06-14T12:42:57;8.83;;;6.40;;
43552;SDS011;29153;42.696;23.218;2023-06-14T12:45:25;10.58;;;6.05;;
43552;SDS011;29153;42.696;23.218;2023-06-14T12:47:52;10.45;;;5.58;;
43552;SDS011;29153;42.696;23.218;2023-06-14T12:50:20;8.70;;;6.05;;
43552;SDS011;29153;42.696;23.218;2023-06-14T12:52:49;9.78;;;6.47;;
43552;SDS011;29153;42.696;23.218;2023-06-14T12:55:16;9.03;;;5.67;;
43552;SDS011;29153;42.696;23.218;2023-06-14T12:57:45;8.70;;;5.35;;
43552;SDS011;29153;42.696;23.218;2023-06-14T13:00:14;9.38;;;5.50;;
43552;SDS011;29153;42.696;23.218;2023-06-14T13:02:43;8.05;;;5.95;;
43552;SDS011;29153;42.696;23.218;2023-06-14T13:05:11;10.58;;;5.42;;
43552;SDS011;29153;42.696;23.218;2023-06-14T13:10:05;9.25;;;5.62;;
43552;SDS011;29153;42.696;23.218;2023-06-14T13:12:33;9.53;;;5.37;;
43552;SDS011;29153;42.696;23.218;2023-06-14T13:15:00;7.50;;;5.17;;
43552;SDS011;29153;42.696;23.218;2023-06-14T13:17:28;7.20;;;5.05;;
43552;SDS011;29153;42.696;23.218;2023-06-14T13:19:58;9.85;;;6.28;;
43552;SDS011;29153;42.696;23.218;2023-06-14T13:59:31;8.23;;;4.95;;
43552;SDS011;29153;42.696;23.218;2023-06-14T14:04:26;8.25;;;4.85;;
43552;SDS011;29153;42.696;23.218;2023-06-14T14:06:53;8.03;;;4.53;;
43552;SDS011;29153;42.696;23.218;2023-06-14T14:09:21;8.88;;;4.87;;
43552;SDS011;29153;42.696;23.218;2023-06-14T14:11:49;7.92;;;5.15;;
43552;SDS011;29153;42.696;23.218;2023-06-14T14:14:16;9.08;;;5.37;;
43552;SDS011;29153;42.696;23.218;2023-06-14T14:16:46;10.00;;;5.20;;
43552;SDS011;29153;42.696;23.218;2023-06-14T14:19:14;9.88;;;5.60;;
43552;SDS011;29153;42.696;23.218;2023-06-14T14:21:41;8.38;;;4.83;;
43552;SDS011;29153;42.696;23.218;2023-06-14T14:24:09;9.43;;;6.00;;
43552;SDS011;29153;42.696;23.218;2023-06-14T14:26:36;9.58;;;6.22;;
43552;SDS011;29153;42.696;23.218;2023-06-14T14:29:04;9.48;;;5.50;;
43552;SDS011;29153;42.696;23.218;2023-06-14T14:31:32;8.43;;;5.40;;
43552;SDS011;29153;42.696;23.218;2023-06-14T14:33:59;8.63;;;5.55;;
43552;SDS011;29153;42.696;23.218;2023-06-14T14:36:27;9.20;;;5.95;;
43552;SDS011;29153;42.696;23.218;2023-06-14T14:38:54;10.10;;;5.62;;
43552;SDS011;29153;42.696;23.218;2023-06-14T14:41:22;14.05;;;6.87;;
43552;SDS011;29153;42.696;23.218;2023-06-14T14:43:50;11.53;;;7.22;;
43552;SDS011;29153;42.696;23.218;2023-06-14T14:46:17;11.10;;;6.40;;
43552;SDS011;29153;42.696;23.218;2023-06-14T14:48:45;12.47;;;7.87;;
43552;SDS011;29153;42.696;23.218;2023-06-14T14:51:12;9.75;;;6.25;;
43552;SDS011;29153;42.696;23.218;2023-06-14T14:53:40;11.08;;;7.00;;
43552;SDS011;29153;42.696;23.218;2023-06-14T14:56:07;10.75;;;6.97;;
43552;SDS011;29153;42.696;23.218;2023-06-14T14:58:35;10.30;;;6.72;;
43552;SDS011;29153;42.696;23.218;2023-06-14T15:03:31;13.35;;;7.12;;
43552;SDS011;29153;42.696;23.218;2023-06-14T15:05:59;13.72;;;8.35;;
43552;SDS011;29153;42.696;23.218;2023-06-14T15:08:26;12.98;;;7.90;;
43552;SDS011;29153;42.696;23.218;2023-06-14T15:10:54;10.90;;;6.55;;
43552;SDS011;29153;42.696;23.218;2023-06-14T15:13:21;10.90;;;6.40;;
43552;SDS011;29153;42.696;23.218;2023-06-14T15:15:49;11.50;;;7.08;;
43552;SDS011;29153;42.696;23.218;2023-06-14T15:18:16;10.45;;;6.12;;
43552;SDS011;29153;42.696;23.218;2023-06-14T15:20:46;11.08;;;6.25;;
43552;SDS011;29153;42.696;23.218;2023-06-14T15:23:14;8.83;;;5.25;;
43552;SDS011;29153;42.696;23.218;2023-06-14T15:25:43;11.70;;;6.10;;
43552;SDS011;29153;42.696;23.218;2023-06-14T15:28:10;8.85;;;5.15;;
43552;SDS011;29153;42.696;23.218;2023-06-14T15:30:38;9.28;;;5.60;;
43552;SDS011;29153;42.696;23.218;2023-06-14T15:33:05;10.32;;;6.10;;
43552;SDS011;29153;42.696;23.218;2023-06-14T15:35:33;10.63;;;5.40;;
43552;SDS011;29153;42.696;23.218;2023-06-14T15:38:00;9.03;;;5.85;;
43552;SDS011;29153;42.696;23.218;2023-06-14T15:40:28;11.38;;;6.65;;
43552;SDS011;29153;42.696;23.218;2023-06-14T15:42:56;12.55;;;7.28;;
43552;SDS011;29153;42.696;23.218;2023-06-14T15:45:23;12.05;;;6.20;;
43552;SDS011;29153;42.696;23.218;2023-06-14T15:47:51;12.58;;;6.58;;
43552;SDS011;29153;42.696;23.218;2023-06-14T15:50:19;11.05;;;6.25;;
43552;SDS011;29153;42.696;23.218;2023-06-14T15:52:47;13.45;;;7.60;;
43552;SDS011;29153;42.696;23.218;2023-06-14T15:55:14;11.22;;;6.37;;
43552;SDS011;29153;42.696;23.218;2023-06-14T15:57:42;9.70;;;5.80;;
43552;SDS011;29153;42.696;23.218;2023-06-14T16:00:10;11.12;;;7.10;;
43552;SDS011;29153;42.696;23.218;2023-06-14T16:05:05;12.28;;;6.75;;
43552;SDS011;29153;42.696;23.218;2023-06-14T16:07:32;11.78;;;7.40;;